PASN/SNP METAR and TAF weather

Enter ICAO airport designator
Station Type Date Time Source
PASN METAR 2019/12/14 16:53 UTC NOAA

PASN 141653Z AUTO 03025G31KT 10SM SCT019 BKN026 BKN036 03/M01 A2897 RMK PK WND 04032/1628 RAB18E28 SLP809 P0000 T00281006 TSNO VIA AUTODIAL


Station Type Date Time Source
PASN Decoded METAR 2019/12/14 16:53 UTC NOAA

ST PAUL ISLAND AIRPORT, AK, United States (PASN) 57-10N 170-13W 9M
Dec 14, 2019 - 11:53 AM EST / 2019.12.14 1653 UTC
Wind: from the NNE (030 degrees) at 29 MPH (25 KT) gusting to 36 MPH (31 KT):0
Visibility: 10 mile(s):0
Sky conditions: mostly cloudy
Precipitation last hour: A trace
Temperature: 37.0 F (2.8 C)
Dew Point: 30.9 F (-0.6 C)
Relative Humidity: 78%
Pressure (altimeter): 28.97 in. Hg (981 hPa)
ob: PASN 141653Z AUTO 03025G31KT 10SM SCT019 BKN026 BKN036 03/M01 A2897 RMK PK WND 04032/1628 RAB18E28 SLP809 P0000 T00281006 TSNO VIA AUTODIAL
cycle: 17

Station Type Date Time Source
PASN TAF 2019/12/14 12:24 UTC NOAA

TAF PASN 141121Z 1412/1512 07020G30KT P6SM FEW020 OVC035
FM141600 06030G40KT P6SM OVC030
FM150000 02030G40KT 3SM -RA BR OVC015
FM150600 02020G30KT 3SM -RA BR OVC008

Example: see airport list